createdAt,value
2023-02-16T00:10:23.162Z,5
2023-02-16T00:16:34.709Z,4.8
2023-02-16T00:28:46.830Z,5
2023-02-16T00:34:46.391Z,4.9
2023-02-16T00:41:04.055Z,5
2023-02-16T00:47:05.913Z,4.9
2023-02-16T00:52:59.315Z,4.8
2023-02-16T01:05:06.915Z,4.8
2023-02-16T01:11:13.180Z,4.8
2023-02-16T01:17:16.255Z,4.7
2023-02-16T01:23:14.806Z,4.7
2023-02-16T01:29:12.933Z,4.6
2023-02-16T01:35:15.985Z,4.5
2023-02-16T01:41:21.074Z,4.4
2023-02-16T01:47:34.070Z,4.5
2023-02-16T01:53:38.027Z,4.4
2023-02-16T01:59:38.565Z,4.2
2023-02-16T02:05:33.943Z,3.9
2023-02-16T02:11:42.755Z,3.8
2023-02-16T02:17:51.263Z,3.6
2023-02-16T02:23:45.596Z,3.9
2023-02-16T02:29:51.006Z,3.8
2023-02-16T02:35:45.659Z,3.8
2023-02-16T02:48:00.656Z,3.7
2023-02-16T02:54:09.726Z,3.1
2023-02-16T03:00:28.554Z,3.4
2023-02-16T03:06:27.678Z,3.2
2023-02-16T03:12:20.986Z,3.3
2023-02-16T03:18:13.777Z,3.2
2023-02-16T03:30:16.466Z,3.3
2023-02-16T03:36:09.340Z,3.3
2023-02-16T03:42:07.921Z,3.4
2023-02-16T03:48:07.783Z,3.4
2023-02-16T03:53:59.632Z,3.4
2023-02-16T03:59:50.731Z,3.4
2023-02-16T04:05:47.614Z,3.4
2023-02-16T04:11:39.064Z,3.2
2023-02-16T04:17:41.621Z,3.4
2023-02-16T04:23:47.050Z,3.3
2023-02-16T04:29:40.604Z,3.1
2023-02-16T04:41:38.641Z,3.3
2023-02-16T04:47:44.988Z,3.1
2023-02-16T04:59:56.174Z,3.2
2023-02-16T05:05:48.071Z,2.9
2023-02-16T05:11:40.049Z,2.9
2023-02-16T05:17:31.927Z,2.8
2023-02-16T05:23:50.850Z,2.9
2023-02-16T05:29:41.115Z,2.9
2023-02-16T05:35:31.691Z,2.9
2023-02-16T05:41:21.269Z,2.8
2023-02-16T05:47:13.500Z,2.8
2023-02-16T05:53:03.552Z,2.7
2023-02-16T05:58:56.071Z,2.8
2023-02-16T06:04:46.776Z,2.9
2023-02-16T06:10:37.305Z,2.9
2023-02-16T06:16:27.372Z,2.8
2023-02-16T06:22:16.689Z,2.7
2023-02-16T06:28:06.210Z,2.7
2023-02-16T06:33:58.756Z,2.8
2023-02-16T06:53:09.791Z,2.5
2023-02-16T06:59:02.395Z,2.7
2023-02-16T07:04:52.794Z,2.8
2023-02-16T07:10:49.687Z,2.6
2023-02-16T07:16:50.807Z,2.7
2023-02-16T07:22:42.190Z,2.9
2023-02-16T07:28:30.382Z,2.6
2023-02-16T07:34:20.910Z,3
2023-02-16T07:40:11.264Z,3.3
2023-02-16T07:46:00.195Z,3.2
2023-02-16T07:51:50.151Z,3.3
2023-02-16T07:57:41.534Z,3.3
2023-02-16T08:03:41.983Z,3.5
2023-02-16T08:09:39.556Z,3.6
2023-02-16T08:15:39.176Z,3.5
2023-02-16T08:21:29.286Z,3.5
2023-02-16T08:27:21.435Z,3.8
2023-02-16T08:33:14.700Z,3.9
2023-02-16T08:39:06.063Z,4
2023-02-16T08:44:57.851Z,4.2
2023-02-16T08:50:47.324Z,4.3
2023-02-16T08:56:37.527Z,4.4
2023-02-16T09:02:29.759Z,4.6
2023-02-16T09:08:23.778Z,4.7
2023-02-16T09:14:15.450Z,4.9
2023-02-16T09:20:05.134Z,4.9
2023-02-16T09:25:56.534Z,5.1
2023-02-16T09:31:49.276Z,5.2
2023-02-16T09:37:40.109Z,5.3
2023-02-16T09:43:33.062Z,5.3
2023-02-16T09:49:33.138Z,5.4
2023-02-16T09:55:24.987Z,5.4
2023-02-16T10:01:16.098Z,5.6
2023-02-16T10:07:08.893Z,5.9
2023-02-16T10:13:01.111Z,6.1
2023-02-16T10:18:52.612Z,6.5
2023-02-16T10:24:44.224Z,6.7
2023-02-16T10:30:40.080Z,7
2023-02-16T10:36:41.835Z,7.3
2023-02-16T10:42:35.428Z,7.4
2023-02-16T10:48:25.918Z,7.6
2023-02-16T10:54:18.281Z,7.7
2023-02-16T11:00:12.765Z,7.8
2023-02-16T11:06:14.293Z,7.8
2023-02-16T11:12:06.152Z,7.9
2023-02-16T11:18:05.045Z,8.1
2023-02-16T11:24:34.094Z,8.3
2023-02-16T11:30:35.059Z,8.4
2023-02-16T11:36:26.593Z,8.5
2023-02-16T11:42:16.870Z,8.6
2023-02-16T11:48:07.632Z,8.6
2023-02-16T11:54:09.849Z,8.7
2023-02-16T12:00:04.094Z,8.7
2023-02-16T12:05:54.105Z,8.8
2023-02-16T12:11:50.232Z,8.9
2023-02-16T12:17:42.603Z,9
2023-02-16T12:23:34.284Z,9
2023-02-16T12:29:28.469Z,8.8
2023-02-16T12:35:23.537Z,8.8
2023-02-16T12:41:15.994Z,8.8
2023-02-16T12:47:06.384Z,8.8
2023-02-16T12:52:57.042Z,8.8
2023-02-16T12:58:45.773Z,8.8
2023-02-16T13:04:45.524Z,8.8
2023-02-16T13:10:39.440Z,8.8
2023-02-16T13:22:59.603Z,8.9
2023-02-16T13:28:51.666Z,8.9
2023-02-16T13:53:51.369Z,9
2023-02-16T14:05:45.890Z,9
2023-02-16T14:11:44.070Z,9.1
2023-02-16T14:17:34.938Z,9.2
2023-02-16T14:23:42.470Z,9.3
2023-02-16T14:41:42.050Z,9.4
2023-02-16T15:00:07.139Z,9.5
2023-02-16T15:05:56.733Z,9.5
2023-02-16T15:12:03.941Z,9.6
2023-02-16T15:18:07.311Z,9.5
2023-02-16T15:23:57.770Z,9.6
2023-02-16T15:29:58.752Z,9.7
2023-02-16T15:35:51.527Z,9.6
2023-02-16T15:41:44.864Z,9.6
2023-02-16T15:47:46.269Z,9.6
2023-02-16T15:53:50.346Z,9.7
2023-02-16T15:59:40.576Z,9.7
2023-02-16T16:05:30.435Z,9.6
2023-02-16T16:11:21.470Z,9.6
2023-02-16T16:23:15.002Z,9.6
2023-02-16T16:29:08.360Z,9.6
2023-02-16T16:34:58.725Z,9.6
2023-02-16T16:40:55.305Z,9.6
2023-02-16T16:46:46.747Z,9.6
2023-02-16T16:52:36.177Z,9.6
2023-02-16T16:58:46.979Z,9.6
2023-02-16T17:04:35.908Z,9.6
2023-02-16T17:10:25.128Z,9.6
2023-02-16T17:16:15.124Z,9.6
2023-02-16T17:22:07.733Z,9.5
2023-02-16T17:27:58.169Z,9.6
2023-02-16T17:33:50.933Z,9.6
2023-02-16T17:39:41.597Z,9.6
2023-02-16T17:45:33.363Z,9.6
2023-02-16T17:51:25.178Z,9.6
2023-02-16T17:57:16.564Z,9.6
2023-02-16T18:03:07.705Z,9.6
2023-02-16T18:08:59.819Z,9.5
2023-02-16T18:14:53.706Z,9.4
2023-02-16T18:20:49.734Z,9.4
2023-02-16T18:26:42.195Z,9.4
2023-02-16T18:32:33.128Z,9.4
2023-02-16T18:38:23.787Z,9.4
2023-02-16T18:44:17.027Z,9.3
2023-02-16T18:50:15.416Z,9.3
2023-02-16T18:56:05.456Z,9.4
2023-02-16T19:01:56.030Z,9.5
2023-02-16T19:07:46.525Z,9.6
2023-02-16T19:13:40.181Z,9.6
2023-02-16T19:19:31.082Z,9.6
2023-02-16T19:25:21.174Z,9.6
2023-02-16T19:31:09.921Z,9.6
2023-02-16T19:37:02.119Z,9.6
2023-02-16T19:42:51.891Z,9.6
2023-02-16T19:48:42.267Z,9.7
2023-02-16T19:54:32.457Z,9.7
2023-02-16T20:00:21.541Z,9.7
2023-02-16T20:06:11.783Z,9.7
2023-02-16T20:12:01.207Z,9.7
2023-02-16T20:17:55.549Z,9.7
2023-02-16T20:23:47.876Z,9.7
2023-02-16T20:29:39.005Z,9.7
2023-02-16T20:35:30.900Z,9.7
2023-02-16T20:41:21.019Z,9.7
2023-02-16T20:47:13.419Z,9.8
2023-02-16T20:53:05.758Z,9.7
2023-02-16T20:58:58.074Z,9.8
2023-02-16T21:04:48.624Z,9.7
2023-02-16T21:16:40.905Z,9.7
2023-02-16T21:22:30.512Z,9.7
2023-02-16T21:28:21.821Z,9.7
2023-02-16T21:34:11.935Z,9.7
2023-02-16T21:40:02.418Z,9.7
2023-02-16T21:45:57.544Z,9.7
2023-02-16T21:51:48.929Z,9.8
2023-02-16T21:57:39.588Z,9.8
2023-02-16T22:03:30.912Z,9.8
2023-02-16T22:09:23.731Z,9.9
2023-02-16T22:15:14.048Z,9.9
2023-02-16T22:21:06.151Z,10
2023-02-16T22:26:56.466Z,10
2023-02-16T22:32:52.767Z,10
2023-02-16T22:38:44.276Z,10
2023-02-16T22:44:35.211Z,10
2023-02-16T22:50:28.077Z,10.1
2023-02-16T22:56:17.444Z,10.1
2023-02-16T23:02:07.433Z,10.1
2023-02-16T23:08:18.709Z,10.1
2023-02-16T23:26:57.855Z,10.2
2023-02-16T23:32:51.639Z,10.2
2023-02-16T23:38:45.886Z,10.1
2023-02-16T23:51:31.861Z,10.2
2023-02-16T23:57:27.259Z,10.2
